createdAt,value
2022-11-15T00:01:44.296Z,75.90
2022-11-15T00:04:29.663Z,76.20
2022-11-15T00:07:40.390Z,76.50
2022-11-15T00:10:20.688Z,77.10
2022-11-15T00:13:11.558Z,77.40
2022-11-15T00:16:02.368Z,77.40
2022-11-15T00:18:50.904Z,78.30
2022-11-15T00:21:36.351Z,78.90
2022-11-15T00:24:21.630Z,79.60
2022-11-15T00:27:08.204Z,79.10
2022-11-15T00:29:54.321Z,78.80
2022-11-15T00:32:39.668Z,78.70
2022-11-15T00:35:25.167Z,78.60
2022-11-15T00:38:10.776Z,78.50
2022-11-15T00:40:56.268Z,78.70
2022-11-15T00:43:44.332Z,79.00
2022-11-15T00:46:29.943Z,79.00
2022-11-15T00:49:15.330Z,79.40
2022-11-15T00:52:00.843Z,79.40
2022-11-15T00:54:46.345Z,79.60
2022-11-15T00:57:31.768Z,79.50
2022-11-15T01:00:17.660Z,79.30
2022-11-15T01:03:02.855Z,80.10
2022-11-15T01:05:48.374Z,80.10
2022-11-15T01:08:33.904Z,80.00
2022-11-15T01:11:19.107Z,79.90
2022-11-15T01:14:04.767Z,79.90
2022-11-15T01:16:50.314Z,79.80
2022-11-15T01:19:35.910Z,79.80
2022-11-15T01:22:21.596Z,79.80
2022-11-15T01:25:07.165Z,79.80
2022-11-15T01:27:52.648Z,79.80
2022-11-15T01:30:37.999Z,79.70
2022-11-15T01:33:23.311Z,79.50
2022-11-15T01:36:13.880Z,79.50
2022-11-15T01:39:00.318Z,79.50
2022-11-15T01:41:45.531Z,79.50
2022-11-15T01:44:52.848Z,79.60
2022-11-15T01:47:41.606Z,79.50
2022-11-15T01:50:32.136Z,79.60
2022-11-15T01:53:19.542Z,79.50
2022-11-15T01:56:09.013Z,80.40
2022-11-15T01:58:57.506Z,80.30
2022-11-15T02:01:43.223Z,80.20
2022-11-15T02:04:34.783Z,80.20
2022-11-15T02:07:22.718Z,80.00
2022-11-15T02:10:11.752Z,80.20
2022-11-15T02:13:00.366Z,80.70
2022-11-15T02:16:07.057Z,80.50
2022-11-15T02:19:19.084Z,80.80
2022-11-15T02:22:33.630Z,81.00
2022-11-15T02:25:47.213Z,81.70
2022-11-15T02:28:38.168Z,81.90
2022-11-15T02:31:54.837Z,82.50
2022-11-15T02:35:12.992Z,82.70
2022-11-15T02:38:31.230Z,83.00
2022-11-15T02:41:39.451Z,82.80
2022-11-15T02:44:31.511Z,82.70
2022-11-15T02:47:18.658Z,83.10
2022-11-15T02:50:10.224Z,83.00
2022-11-15T02:52:55.993Z,82.90
2022-11-15T02:55:52.116Z,83.10
2022-11-15T02:58:43.669Z,83.10
2022-11-15T03:01:57.218Z,83.10
2022-11-15T03:05:20.269Z,83.20
2022-11-15T03:08:13.442Z,83.20
2022-11-15T03:11:09.543Z,83.40
2022-11-15T03:13:58.594Z,83.50
2022-11-15T03:16:49.921Z,83.30
2022-11-15T03:19:53.848Z,83.20
2022-11-15T03:22:43.777Z,83.10
2022-11-15T03:25:31.792Z,83.40
2022-11-15T03:28:26.343Z,83.30
2022-11-15T03:31:33.225Z,83.40
2022-11-15T03:34:38.981Z,83.40
2022-11-15T03:37:36.265Z,83.30
2022-11-15T03:40:37.968Z,83.40
2022-11-15T03:43:46.631Z,83.20
2022-11-15T03:46:38.009Z,83.10
2022-11-15T03:49:28.950Z,83.10
2022-11-15T03:52:19.644Z,83.00
2022-11-15T03:55:07.371Z,82.90
2022-11-15T03:57:58.912Z,82.90
2022-11-15T04:00:44.273Z,83.00
2022-11-15T04:03:29.962Z,82.90
2022-11-15T04:06:15.825Z,82.70
2022-11-15T04:09:01.309Z,82.70
2022-11-15T04:11:46.785Z,82.80
2022-11-15T04:14:32.271Z,82.60
2022-11-15T04:17:17.718Z,82.70
2022-11-15T04:20:28.039Z,82.90
2022-11-15T04:23:41.698Z,83.10
2022-11-15T04:26:27.327Z,83.30
2022-11-15T04:29:31.488Z,83.50
2022-11-15T04:32:17.045Z,83.10
2022-11-15T04:35:02.622Z,83.10
2022-11-15T04:37:49.558Z,83.10
2022-11-15T04:40:36.654Z,82.50
2022-11-15T04:43:22.009Z,82.30
2022-11-15T04:46:07.484Z,82.60
2022-11-15T04:48:58.323Z,83.00
2022-11-15T04:51:44.933Z,83.10
2022-11-15T04:54:30.481Z,82.80
2022-11-15T04:57:15.882Z,83.10
2022-11-15T05:00:03.602Z,83.30
2022-11-15T05:03:07.420Z,83.50
2022-11-15T05:05:52.928Z,83.60
2022-11-15T05:08:38.404Z,83.60
2022-11-15T05:11:24.495Z,83.60
2022-11-15T05:14:10.627Z,83.70
2022-11-15T05:16:56.243Z,83.80
2022-11-15T05:19:41.638Z,83.80
2022-11-15T05:22:28.011Z,83.70
2022-11-15T05:25:13.101Z,83.40
2022-11-15T05:27:58.562Z,83.40
2022-11-15T05:30:44.002Z,83.40
2022-11-15T05:33:30.417Z,83.40
2022-11-15T05:36:38.684Z,83.20
2022-11-15T05:39:24.251Z,82.90
2022-11-15T05:42:15.000Z,83.20
2022-11-15T05:45:03.249Z,83.20
2022-11-15T05:47:50.472Z,83.10
2022-11-15T05:50:39.202Z,83.10
2022-11-15T05:53:26.809Z,83.00
2022-11-15T05:56:13.446Z,83.30
2022-11-15T05:59:00.098Z,83.40
2022-11-15T06:01:46.199Z,83.30
2022-11-15T06:04:31.650Z,83.10
2022-11-15T06:07:17.383Z,83.00
2022-11-15T06:10:02.639Z,82.90
2022-11-15T06:12:48.120Z,83.00
2022-11-15T06:15:35.248Z,83.10
2022-11-15T06:18:20.506Z,83.10
2022-11-15T06:21:06.533Z,83.00
2022-11-15T06:23:51.918Z,83.10
2022-11-15T06:26:37.479Z,83.30
2022-11-15T06:29:23.036Z,83.20
2022-11-15T06:32:08.597Z,83.30
2022-11-15T06:34:54.188Z,83.10
2022-11-15T06:37:39.676Z,82.90
2022-11-15T06:40:25.195Z,83.00
2022-11-15T06:43:10.595Z,83.00
2022-11-15T06:45:55.877Z,83.00
2022-11-15T06:48:41.449Z,83.00
2022-11-15T06:51:26.658Z,82.90
2022-11-15T06:54:12.328Z,82.80
2022-11-15T06:56:57.789Z,82.60
2022-11-15T06:59:43.200Z,82.40
2022-11-15T07:02:28.751Z,82.30
2022-11-15T07:05:15.169Z,82.30
2022-11-15T07:08:00.840Z,82.50
2022-11-15T07:10:45.895Z,82.80
2022-11-15T07:13:34.793Z,82.80
2022-11-15T07:16:20.590Z,82.80
2022-11-15T07:19:06.196Z,83.00
2022-11-15T07:21:51.889Z,83.00
2022-11-15T07:24:37.365Z,82.90
2022-11-15T07:27:22.746Z,82.80
2022-11-15T07:30:09.017Z,82.90
2022-11-15T07:32:55.904Z,83.00
2022-11-15T07:35:41.146Z,83.10
2022-11-15T07:38:26.769Z,83.00
2022-11-15T07:41:12.226Z,82.90
2022-11-15T07:43:58.692Z,82.80
2022-11-15T07:46:44.273Z,82.80
2022-11-15T07:49:29.680Z,82.80
2022-11-15T07:52:15.200Z,82.80
2022-11-15T07:55:00.610Z,82.80
2022-11-15T07:57:46.104Z,82.70
2022-11-15T08:00:32.120Z,82.70
2022-11-15T08:03:18.362Z,82.50
2022-11-15T08:06:04.816Z,82.40
2022-11-15T08:08:50.208Z,82.30
2022-11-15T08:11:35.858Z,82.20
2022-11-15T08:14:22.960Z,82.10
2022-11-15T08:17:08.731Z,82.00
2022-11-15T08:19:54.242Z,81.80
2022-11-15T08:22:39.734Z,81.70
2022-11-15T08:25:29.441Z,81.50
2022-11-15T08:28:17.742Z,81.50
2022-11-15T08:31:04.467Z,81.30
2022-11-15T08:33:50.043Z,81.30
2022-11-15T08:36:44.636Z,81.00
2022-11-15T08:39:31.802Z,80.80
2022-11-15T08:42:19.918Z,80.40
2022-11-15T08:45:06.568Z,80.60
2022-11-15T08:47:54.415Z,80.30
2022-11-15T08:50:39.881Z,79.70
2022-11-15T08:53:25.436Z,79.30
2022-11-15T08:56:12.623Z,78.70
2022-11-15T08:58:58.040Z,78.40
2022-11-15T09:01:43.378Z,78.20
2022-11-15T09:04:28.944Z,77.90
2022-11-15T09:07:14.846Z,77.20
2022-11-15T09:10:00.479Z,77.10
2022-11-15T09:12:49.246Z,77.30
2022-11-15T09:15:35.092Z,78.40
2022-11-15T09:18:23.190Z,77.50
2022-11-15T09:21:08.951Z,79.30
2022-11-15T09:23:54.601Z,77.40
2022-11-15T09:26:40.698Z,74.50
2022-11-15T09:29:25.982Z,73.80
2022-11-15T09:32:11.544Z,74.60
2022-11-15T09:34:57.370Z,75.10
2022-11-15T09:37:42.647Z,75.80
2022-11-15T09:40:28.634Z,74.30
2022-11-15T09:43:32.640Z,68.00
2022-11-15T09:46:27.799Z,66.70
2022-11-15T09:49:18.144Z,65.10
2022-11-15T09:52:22.133Z,67.00
2022-11-15T09:54:55.546Z,67.60
2022-11-15T09:57:45.556Z,66.10
2022-11-15T10:00:47.461Z,65.10
2022-11-15T10:03:26.886Z,64.70
2022-11-15T10:05:58.041Z,63.80
2022-11-15T10:08:48.013Z,64.10
2022-11-15T10:11:38.341Z,63.10
2022-11-15T10:14:22.212Z,64.00
2022-11-15T10:17:02.313Z,65.60
2022-11-15T10:19:38.427Z,65.70
2022-11-15T10:22:42.347Z,64.40
2022-11-15T10:25:25.627Z,61.40
2022-11-15T10:28:03.071Z,59.80
2022-11-15T10:30:38.999Z,60.30
2022-11-15T10:33:34.601Z,60.00
2022-11-15T10:36:09.301Z,60.30
2022-11-15T10:39:04.037Z,60.40
2022-11-15T10:41:36.082Z,58.60
2022-11-15T10:44:18.301Z,57.20
2022-11-15T10:46:49.651Z,57.80
2022-11-15T10:49:18.992Z,57.80
2022-11-15T10:52:05.375Z,55.10
2022-11-15T10:54:38.835Z,53.20
2022-11-15T10:57:27.564Z,53.10
2022-11-15T11:00:21.384Z,54.40
2022-11-15T11:02:57.110Z,52.80
2022-11-15T11:05:29.099Z,52.40
2022-11-15T11:08:05.365Z,52.90
2022-11-15T11:13:25.571Z,50.90
2022-11-15T11:16:10.546Z,50.40
2022-11-15T11:18:58.999Z,50.10
2022-11-15T11:22:04.562Z,49.80
2022-11-15T11:24:38.831Z,50.70
2022-11-15T11:27:23.569Z,51.40
2022-11-15T11:29:59.214Z,51.40
2022-11-15T11:32:55.251Z,52.30
2022-11-15T11:35:29.792Z,52.60
2022-11-15T11:38:16.149Z,52.50
2022-11-15T11:41:08.613Z,50.50
2022-11-15T11:43:59.092Z,50.10
2022-11-15T11:46:50.840Z,50.80
2022-11-15T11:49:20.982Z,51.50
2022-11-15T11:52:08.615Z,51.30
2022-11-15T11:54:46.355Z,50.90
2022-11-15T11:57:29.062Z,52.00
2022-11-15T12:00:01.925Z,51.60
2022-11-15T12:02:43.013Z,51.40
2022-11-15T12:05:29.293Z,51.20
2022-11-15T12:08:28.101Z,50.70
2022-11-15T12:11:07.402Z,50.30
2022-11-15T12:13:37.666Z,50.70
2022-11-15T12:16:23.696Z,50.90
2022-11-15T12:18:54.737Z,49.00
2022-11-15T12:21:44.805Z,49.00
2022-11-15T12:24:25.634Z,48.30
2022-11-15T12:27:00.596Z,48.40
2022-11-15T12:29:49.485Z,48.50
2022-11-15T12:32:32.437Z,48.50
2022-11-15T12:35:00.295Z,46.80
2022-11-15T12:37:34.769Z,46.50
2022-11-15T12:40:19.195Z,47.00
2022-11-15T12:43:15.003Z,46.70
2022-11-15T12:45:44.330Z,46.60
2022-11-15T12:48:17.275Z,45.00
2022-11-15T12:50:56.018Z,45.80
2022-11-15T12:53:26.297Z,45.40
2022-11-15T12:56:21.704Z,46.20
2022-11-15T12:58:53.096Z,44.80
2022-11-15T13:01:34.894Z,44.80
2022-11-15T13:04:20.432Z,45.30
2022-11-15T13:06:51.570Z,46.60
2022-11-15T13:09:33.268Z,46.40
2022-11-15T13:12:35.335Z,46.20
2022-11-15T13:15:22.900Z,46.00
2022-11-15T13:17:50.814Z,46.90
2022-11-15T13:20:17.502Z,47.70
2022-11-15T13:22:51.635Z,47.90
2022-11-15T13:25:36.981Z,48.00
2022-11-15T13:28:15.266Z,48.30
2022-11-15T13:30:48.015Z,48.50
2022-11-15T13:33:18.537Z,48.60
2022-11-15T13:35:49.989Z,49.10
2022-11-15T13:38:27.323Z,49.60
2022-11-15T13:40:54.230Z,50.10
2022-11-15T13:43:24.094Z,50.60
2022-11-15T13:46:24.014Z,51.40
2022-11-15T13:48:59.719Z,51.90
2022-11-15T13:51:41.179Z,52.40
2022-11-15T13:54:13.756Z,52.90
2022-11-15T13:57:03.772Z,53.20
2022-11-15T13:59:34.201Z,53.50
2022-11-15T14:02:12.073Z,53.50
2022-11-15T14:04:46.088Z,53.70
2022-11-15T14:07:19.968Z,54.20
2022-11-15T14:09:47.289Z,54.50
2022-11-15T14:12:34.797Z,54.70
2022-11-15T14:15:20.173Z,55.00
2022-11-15T14:17:50.044Z,55.40
2022-11-15T14:20:24.803Z,55.70
2022-11-15T14:22:57.157Z,56.20
2022-11-15T14:25:25.951Z,56.30
2022-11-15T14:28:34.307Z,56.40
2022-11-15T14:31:01.634Z,56.70
2022-11-15T14:33:37.048Z,56.80
2022-11-15T14:36:14.284Z,56.90
2022-11-15T14:38:41.410Z,57.20
2022-11-15T14:41:23.595Z,57.50
2022-11-15T14:43:51.871Z,57.80
2022-11-15T14:46:18.919Z,57.80
2022-11-15T14:48:45.993Z,58.00
2022-11-15T14:51:14.747Z,58.10
2022-11-15T14:53:42.827Z,58.20
2022-11-15T14:56:10.226Z,58.20
2022-11-15T14:58:37.058Z,58.20
2022-11-15T15:01:19.725Z,58.40
2022-11-15T15:03:46.541Z,58.50
2022-11-15T15:06:17.863Z,58.50
2022-11-15T15:08:46.559Z,58.60
2022-11-15T15:11:32.318Z,58.60
2022-11-15T15:14:00.504Z,58.80
2022-11-15T15:16:27.291Z,58.90
2022-11-15T15:18:54.066Z,59.10
2022-11-15T15:21:24.403Z,58.90
2022-11-15T15:23:52.355Z,58.80
2022-11-15T15:26:19.127Z,58.80
2022-11-15T15:28:45.921Z,58.90
2022-11-15T15:31:12.719Z,58.90
2022-11-15T15:33:39.609Z,58.90
2022-11-15T15:36:06.598Z,59.00
2022-11-15T15:38:33.817Z,59.20
2022-11-15T15:41:02.908Z,59.20
2022-11-15T15:43:29.660Z,59.40
2022-11-15T15:45:56.381Z,59.50
2022-11-15T15:48:23.234Z,59.70
2022-11-15T15:50:50.193Z,59.80
2022-11-15T15:53:18.246Z,59.80
2022-11-15T15:55:45.065Z,60.00
2022-11-15T15:58:11.962Z,60.00
2022-11-15T16:00:39.713Z,60.00
2022-11-15T16:03:06.547Z,60.00
2022-11-15T16:05:33.288Z,60.20
2022-11-15T16:08:00.351Z,60.10
2022-11-15T16:10:30.302Z,60.20
2022-11-15T16:12:58.524Z,60.30
2022-11-15T16:15:30.329Z,60.50
2022-11-15T16:17:59.134Z,60.40
2022-11-15T16:20:45.245Z,60.40
2022-11-15T16:23:14.850Z,60.50
2022-11-15T16:25:52.886Z,60.40
2022-11-15T16:28:25.437Z,60.60
2022-11-15T16:31:00.793Z,60.60
2022-11-15T16:33:27.724Z,60.90
2022-11-15T16:35:54.550Z,61.10
2022-11-15T16:38:21.313Z,61.20
2022-11-15T16:40:48.228Z,61.60
2022-11-15T16:43:15.286Z,61.80
2022-11-15T16:45:42.154Z,62.10
2022-11-15T16:48:26.243Z,62.30
2022-11-15T16:50:57.631Z,62.80
2022-11-15T16:53:25.125Z,63.40
2022-11-15T16:55:52.088Z,64.40
2022-11-15T16:58:18.900Z,65.50
2022-11-15T17:00:46.229Z,65.90
2022-11-15T17:03:13.101Z,66.90
2022-11-15T17:05:39.913Z,66.90
2022-11-15T17:08:06.727Z,67.40
2022-11-15T17:10:36.521Z,68.00
2022-11-15T17:13:03.372Z,68.40
2022-11-15T17:15:30.167Z,69.00
2022-11-15T17:17:56.888Z,69.30
2022-11-15T17:20:25.067Z,69.70
2022-11-15T17:22:52.904Z,70.00
2022-11-15T17:25:20.595Z,70.30
2022-11-15T17:27:47.673Z,70.50
2022-11-15T17:30:15.441Z,70.70
2022-11-15T17:32:43.289Z,71.10
2022-11-15T17:35:15.675Z,71.40
2022-11-15T17:37:43.312Z,71.60
2022-11-15T17:40:10.903Z,71.90
2022-11-15T17:42:40.147Z,72.20
2022-11-15T17:45:10.220Z,72.70
2022-11-15T17:47:37.464Z,73.00
2022-11-15T17:50:04.680Z,73.20
2022-11-15T17:52:31.508Z,73.50
2022-11-15T17:54:58.310Z,73.80
2022-11-15T17:57:25.108Z,74.00
2022-11-15T17:59:51.925Z,74.50
2022-11-15T18:02:19.472Z,74.60
2022-11-15T18:04:46.337Z,74.70
2022-11-15T18:07:14.358Z,74.90
2022-11-15T18:09:43.868Z,75.20
2022-11-15T18:12:11.983Z,75.60
2022-11-15T18:14:39.024Z,75.60
2022-11-15T18:17:06.049Z,76.00
2022-11-15T18:19:32.838Z,76.10
2022-11-15T18:22:00.830Z,76.40
2022-11-15T18:24:30.375Z,76.40
2022-11-15T18:26:58.367Z,76.50
2022-11-15T18:29:25.272Z,76.70
2022-11-15T18:31:55.792Z,76.90
2022-11-15T18:34:24.545Z,76.70
2022-11-15T18:36:52.655Z,77.10
2022-11-15T18:39:20.183Z,77.20
2022-11-15T18:41:47.815Z,77.20
2022-11-15T18:44:15.281Z,77.40
2022-11-15T18:46:42.899Z,77.40
2022-11-15T18:49:10.917Z,77.50
2022-11-15T18:51:41.563Z,77.70
2022-11-15T18:54:10.764Z,77.70
2022-11-15T18:56:38.300Z,77.80
2022-11-15T18:59:06.216Z,77.80
2022-11-15T19:01:35.693Z,77.70
2022-11-15T19:04:08.768Z,77.90
2022-11-15T19:06:41.542Z,78.00
2022-11-15T19:09:09.912Z,77.90
2022-11-15T19:11:39.583Z,77.90
2022-11-15T19:14:07.701Z,78.10
2022-11-15T19:16:36.627Z,78.30
2022-11-15T19:19:06.716Z,78.30
2022-11-15T19:21:34.444Z,78.50
2022-11-15T19:24:01.519Z,78.50
2022-11-15T19:26:29.353Z,79.00
2022-11-15T19:29:01.176Z,78.80
2022-11-15T19:31:30.303Z,79.00
2022-11-15T19:33:59.981Z,79.10
2022-11-15T19:36:32.599Z,79.00
2022-11-15T19:39:05.185Z,79.00
2022-11-15T19:41:32.134Z,79.10
2022-11-15T19:43:58.923Z,79.40
2022-11-15T19:46:26.873Z,79.50
2022-11-15T19:48:54.452Z,79.80
2022-11-15T19:51:27.395Z,79.70
2022-11-15T19:53:56.173Z,79.70
2022-11-15T19:56:23.668Z,80.00
2022-11-15T19:58:52.832Z,80.20
2022-11-15T20:01:21.194Z,80.30
2022-11-15T20:03:48.982Z,80.10
2022-11-15T20:06:20.301Z,80.00
2022-11-15T20:08:47.980Z,80.10
2022-11-15T20:11:16.100Z,80.50
2022-11-15T20:13:43.590Z,80.40
2022-11-15T20:16:21.613Z,80.60
2022-11-15T20:18:50.238Z,80.40
2022-11-15T20:21:18.018Z,80.50
2022-11-15T20:23:45.351Z,80.60
2022-11-15T20:26:15.161Z,80.60
2022-11-15T20:28:43.960Z,80.70
2022-11-15T20:31:11.868Z,80.70
2022-11-15T20:33:38.801Z,80.50
2022-11-15T20:36:12.066Z,80.40
2022-11-15T20:38:39.719Z,80.40
2022-11-15T20:41:06.831Z,80.40
2022-11-15T20:43:33.850Z,80.50
2022-11-15T20:46:00.728Z,80.60
2022-11-15T20:48:27.971Z,80.50
2022-11-15T20:51:05.319Z,80.50
2022-11-15T20:53:32.182Z,80.50
2022-11-15T20:56:04.514Z,80.50
2022-11-15T20:58:31.585Z,80.50
2022-11-15T21:00:58.803Z,80.50
2022-11-15T21:03:25.854Z,80.60
2022-11-15T21:05:53.792Z,80.50
2022-11-15T21:08:20.624Z,80.70
2022-11-15T21:11:09.984Z,81.10
2022-11-15T21:13:37.456Z,81.10
2022-11-15T21:16:05.440Z,81.30
2022-11-15T21:18:33.202Z,81.10
2022-11-15T21:21:05.446Z,81.10
2022-11-15T21:23:32.496Z,81.10
2022-11-15T21:25:59.583Z,81.20
2022-11-15T21:28:26.330Z,81.20
2022-11-15T21:30:58.990Z,81.20
2022-11-15T21:33:29.784Z,81.20
2022-11-15T21:35:57.688Z,81.40
2022-11-15T21:38:25.101Z,81.40
2022-11-15T21:40:52.939Z,81.40
2022-11-15T21:43:20.952Z,81.30
2022-11-15T21:45:58.401Z,81.40
2022-11-15T21:48:25.184Z,81.40
2022-11-15T21:50:59.694Z,81.30
2022-11-15T21:53:27.639Z,81.20
2022-11-15T21:55:54.896Z,81.20
2022-11-15T21:58:22.728Z,81.10
2022-11-15T22:01:08.373Z,81.10
2022-11-15T22:03:35.933Z,81.40
2022-11-15T22:06:02.835Z,81.30
2022-11-15T22:08:31.241Z,81.20
2022-11-15T22:10:58.363Z,81.20
2022-11-15T22:13:26.092Z,81.10
2022-11-15T22:15:54.143Z,81.20
2022-11-15T22:18:26.380Z,81.10
2022-11-15T22:21:00.722Z,81.10
2022-11-15T22:23:29.292Z,81.20
2022-11-15T22:25:56.555Z,81.20
2022-11-15T22:28:23.718Z,81.60
2022-11-15T22:30:52.212Z,81.60
2022-11-15T22:33:21.183Z,81.60
2022-11-15T22:35:48.126Z,81.60
2022-11-15T22:38:15.227Z,81.60
2022-11-15T22:40:42.202Z,81.80
2022-11-15T22:43:10.040Z,81.70
2022-11-15T22:45:36.746Z,81.90
2022-11-15T22:48:03.648Z,82.00
2022-11-15T22:50:30.519Z,82.00
2022-11-15T22:52:57.383Z,82.00
2022-11-15T22:55:24.117Z,82.10
2022-11-15T22:57:51.014Z,82.00
2022-11-15T23:00:18.599Z,82.20
2022-11-15T23:02:45.350Z,82.10
2022-11-15T23:05:12.093Z,82.20
2022-11-15T23:07:38.953Z,82.20
2022-11-15T23:10:24.839Z,82.30
2022-11-15T23:13:10.548Z,82.30
2022-11-15T23:15:56.134Z,82.20
2022-11-15T23:18:22.878Z,82.30
2022-11-15T23:20:49.758Z,82.30
2022-11-15T23:23:16.488Z,82.30
2022-11-15T23:25:43.348Z,82.30
2022-11-15T23:28:10.130Z,82.60
2022-11-15T23:30:56.502Z,82.50
2022-11-15T23:33:42.031Z,82.60
2022-11-15T23:36:09.084Z,82.70
2022-11-15T23:38:37.394Z,82.80
2022-11-15T23:41:05.788Z,82.90
2022-11-15T23:43:32.854Z,83.00
2022-11-15T23:46:03.069Z,83.10
2022-11-15T23:48:29.972Z,83.30
2022-11-15T23:50:56.980Z,83.60
2022-11-15T23:53:23.858Z,83.60
2022-11-15T23:56:02.155Z,83.80
2022-11-15T23:58:29.121Z,83.70
